createdAt,value
2018-10-07T00:00:17.669Z,44.30
2018-10-07T00:00:51.987Z,44.53
2018-10-07T00:01:26.590Z,47.47
2018-10-07T00:02:03.869Z,45.73
2018-10-07T00:02:38.129Z,46.00
2018-10-07T00:03:11.958Z,48.50
2018-10-07T00:03:45.784Z,44.80
2018-10-07T00:04:19.786Z,45.83
2018-10-07T00:04:54.282Z,46.13
2018-10-07T00:05:28.270Z,45.30
2018-10-07T00:06:02.164Z,48.03
2018-10-07T00:06:36.117Z,46.53
2018-10-07T00:07:10.111Z,48.77
2018-10-07T00:07:44.074Z,47.83
2018-10-07T00:08:18.081Z,48.30
2018-10-07T00:08:52.444Z,48.17
2018-10-07T00:09:26.950Z,46.40
2018-10-07T00:10:01.275Z,46.40
2018-10-07T00:10:35.194Z,51.53
2018-10-07T00:11:09.177Z,47.50
2018-10-07T00:11:43.541Z,46.07
2018-10-07T00:12:17.507Z,46.00
2018-10-07T00:12:51.745Z,45.70
2018-10-07T00:13:26.270Z,46.20
2018-10-07T00:14:00.241Z,48.23
2018-10-07T00:14:33.958Z,46.87
2018-10-07T00:15:07.998Z,46.90
2018-10-07T00:15:41.948Z,47.07
2018-10-07T00:16:15.740Z,48.50
2018-10-07T00:16:49.511Z,49.77
2018-10-07T00:17:24.430Z,48.40
2018-10-07T00:17:59.137Z,48.77
2018-10-07T00:18:33.032Z,51.07
2018-10-07T00:19:07.070Z,47.33
2018-10-07T00:19:41.055Z,49.53
2018-10-07T00:20:14.812Z,51.60
2018-10-07T00:20:48.774Z,49.03
2018-10-07T00:21:23.027Z,49.53
2018-10-07T00:21:57.361Z,49.67
2018-10-07T00:22:31.431Z,46.47
2018-10-07T00:23:05.376Z,45.53
2018-10-07T00:23:39.251Z,48.60
2018-10-07T00:24:13.015Z,48.43
2018-10-07T00:24:46.936Z,47.83
2018-10-07T00:25:21.089Z,48.43
2018-10-07T00:25:55.703Z,48.80
2018-10-07T00:26:30.061Z,47.90
2018-10-07T00:27:03.869Z,50.20
2018-10-07T00:27:37.908Z,50.27
2018-10-07T00:28:11.797Z,50.33
2018-10-07T00:28:45.599Z,49.43
2018-10-07T00:29:19.511Z,49.90
2018-10-07T00:29:55.251Z,51.90
2018-10-07T00:30:29.502Z,50.33
2018-10-07T00:31:03.906Z,49.50
2018-10-07T00:31:43.384Z,47.77
2018-10-07T00:32:17.221Z,47.73
2018-10-07T00:32:51.174Z,47.33
2018-10-07T00:33:25.277Z,48.17
2018-10-07T00:33:59.577Z,47.93
2018-10-07T00:34:33.472Z,46.60
2018-10-07T00:35:07.481Z,47.90
2018-10-07T00:35:41.274Z,47.47
2018-10-07T00:36:14.883Z,47.47
2018-10-07T00:36:48.840Z,49.03
2018-10-07T00:37:22.726Z,50.40
2018-10-07T00:37:56.883Z,49.83
2018-10-07T00:38:30.891Z,48.90
2018-10-07T00:39:06.696Z,49.97
2018-10-07T00:39:40.377Z,52.50
2018-10-07T00:40:14.286Z,50.73
2018-10-07T00:40:48.235Z,47.97
2018-10-07T00:41:22.102Z,47.47
2018-10-07T00:41:56.340Z,48.90
2018-10-07T00:42:30.504Z,49.93
2018-10-07T00:43:04.384Z,47.93
2018-10-07T00:43:38.432Z,48.60
2018-10-07T00:44:12.319Z,48.57
2018-10-07T00:44:46.343Z,47.17
2018-10-07T00:45:20.224Z,50.87
2018-10-07T00:45:54.220Z,52.43
2018-10-07T00:46:28.483Z,48.30
2018-10-07T00:47:02.591Z,48.17
2018-10-07T00:47:36.676Z,49.07
2018-10-07T00:48:10.746Z,46.37
2018-10-07T00:48:44.745Z,48.47
2018-10-07T00:49:18.666Z,47.70
2018-10-07T00:49:52.720Z,48.07
2018-10-07T00:50:26.803Z,48.87
2018-10-07T00:51:01.206Z,47.50
2018-10-07T00:51:35.700Z,47.03
2018-10-07T00:52:09.578Z,48.67
2018-10-07T00:52:43.645Z,46.63
2018-10-07T00:53:17.304Z,47.80
2018-10-07T00:53:51.163Z,46.03
2018-10-07T00:54:25.092Z,47.60
2018-10-07T00:54:59.396Z,49.87
2018-10-07T00:55:33.761Z,49.37
2018-10-07T00:56:07.723Z,49.63
2018-10-07T00:56:41.860Z,49.10
2018-10-07T00:57:15.752Z,48.47
2018-10-07T00:57:49.436Z,49.67
2018-10-07T00:58:23.508Z,47.90
2018-10-07T00:58:57.980Z,50.77
2018-10-07T00:59:32.706Z,48.10
2018-10-07T01:00:07.789Z,50.70
2018-10-07T01:00:41.563Z,49.10
2018-10-07T01:01:15.236Z,50.73
2018-10-07T01:01:49.327Z,53.47
2018-10-07T01:02:23.037Z,51.43
2018-10-07T01:02:57.166Z,50.63
2018-10-07T01:03:31.667Z,51.80
2018-10-07T01:04:05.584Z,50.00
2018-10-07T01:04:39.465Z,51.93
2018-10-07T01:05:13.292Z,50.27
2018-10-07T01:05:47.297Z,50.43
2018-10-07T01:06:21.177Z,49.70
2018-10-07T01:06:54.855Z,53.97
2018-10-07T01:07:28.863Z,51.83
2018-10-07T01:08:02.936Z,52.60
2018-10-07T01:08:36.932Z,52.30
2018-10-07T01:09:12.033Z,51.93
2018-10-07T01:09:46.143Z,52.17
2018-10-07T01:10:20.200Z,52.27
2018-10-07T01:10:53.856Z,56.80
2018-10-07T01:11:27.897Z,53.67
2018-10-07T01:12:02.080Z,54.03
2018-10-07T01:12:36.135Z,53.03
2018-10-07T01:13:10.064Z,56.00
2018-10-07T01:13:44.012Z,53.77
2018-10-07T01:14:17.867Z,51.90
2018-10-07T01:14:51.800Z,54.03
2018-10-07T01:15:25.661Z,52.47
2018-10-07T01:15:59.683Z,52.27
2018-10-07T01:16:33.807Z,54.00
2018-10-07T01:17:08.058Z,56.27
2018-10-07T01:17:42.404Z,53.93
2018-10-07T01:18:16.092Z,53.93
2018-10-07T01:18:49.828Z,57.50
2018-10-07T01:19:23.842Z,58.70
2018-10-07T01:19:58.061Z,56.03
2018-10-07T01:20:32.809Z,55.70
2018-10-07T01:21:06.571Z,53.97
2018-10-07T01:21:40.586Z,61.13
2018-10-07T01:22:14.537Z,55.47
2018-10-07T01:22:48.441Z,56.30
2018-10-07T01:23:22.404Z,60.97
2018-10-07T01:23:56.249Z,57.83
2018-10-07T01:24:30.069Z,54.80
2018-10-07T01:25:04.370Z,56.27
2018-10-07T01:25:38.708Z,58.17
2018-10-07T01:26:12.743Z,57.23
2018-10-07T01:26:46.615Z,56.87
2018-10-07T01:27:20.453Z,60.03
2018-10-07T01:27:55.248Z,57.00
2018-10-07T01:28:29.033Z,57.93
2018-10-07T01:29:03.201Z,58.07
2018-10-07T01:29:37.682Z,60.60
2018-10-07T01:30:14.427Z,58.60
2018-10-07T01:30:48.202Z,54.73
2018-10-07T01:31:22.185Z,56.10
2018-10-07T01:31:56.165Z,61.53
2018-10-07T01:32:30.113Z,64.60
2018-10-07T01:33:04.116Z,56.53
2018-10-07T01:33:38.433Z,58.03
2018-10-07T01:34:12.217Z,60.50
2018-10-07T01:34:45.971Z,60.90
2018-10-07T01:35:19.958Z,61.07
2018-10-07T01:35:54.302Z,68.57
2018-10-07T01:36:28.273Z,67.77
2018-10-07T01:37:02.131Z,66.63
2018-10-07T01:37:36.225Z,64.30
2018-10-07T01:38:10.164Z,64.53
2018-10-07T01:38:44.052Z,66.60
2018-10-07T01:39:17.959Z,69.93
2018-10-07T01:39:51.846Z,72.80
2018-10-07T01:40:25.634Z,70.20
2018-10-07T01:40:59.537Z,70.10
2018-10-07T01:41:33.294Z,68.50
2018-10-07T01:42:07.563Z,70.90
2018-10-07T01:42:41.644Z,71.43
2018-10-07T01:43:15.513Z,73.53
2018-10-07T01:43:49.426Z,70.40
2018-10-07T01:44:23.217Z,70.03
2018-10-07T01:44:57.254Z,72.03
2018-10-07T01:45:31.319Z,73.10
2018-10-07T01:46:05.444Z,78.20
2018-10-07T01:46:39.832Z,72.53
2018-10-07T01:47:13.734Z,85.10
2018-10-07T01:47:47.528Z,76.47
2018-10-07T01:48:21.518Z,81.93
2018-10-07T01:48:55.481Z,82.97
2018-10-07T01:49:30.444Z,77.80
2018-10-07T01:50:04.588Z,83.50
2018-10-07T01:50:38.862Z,78.20
2018-10-07T01:51:12.709Z,86.23
2018-10-07T01:51:46.936Z,82.40
2018-10-07T01:52:20.790Z,87.77
2018-10-07T01:52:54.804Z,83.60
2018-10-07T01:53:28.508Z,82.63
2018-10-07T01:54:02.770Z,83.40
2018-10-07T01:54:36.833Z,86.17
2018-10-07T01:55:10.782Z,82.80
2018-10-07T01:55:44.548Z,86.97
2018-10-07T01:56:18.337Z,86.73
2018-10-07T01:56:52.149Z,91.97
2018-10-07T01:57:25.961Z,92.10
2018-10-07T01:57:59.760Z,84.30
2018-10-07T01:58:33.626Z,87.60
2018-10-07T01:59:07.930Z,88.73
2018-10-07T01:59:42.128Z,96.10
2018-10-07T02:00:16.037Z,93.67
2018-10-07T02:00:50.113Z,92.00
2018-10-07T02:01:24.132Z,91.30
2018-10-07T02:01:57.964Z,93.43
2018-10-07T02:02:31.946Z,92.33
2018-10-07T02:03:05.670Z,87.13
2018-10-07T02:03:39.832Z,92.70
2018-10-07T02:04:13.702Z,97.23
2018-10-07T02:04:47.572Z,93.37
2018-10-07T02:05:21.700Z,91.93
2018-10-07T02:05:55.466Z,100.20
2018-10-07T02:06:29.319Z,94.53
2018-10-07T02:07:03.329Z,95.37
2018-10-07T02:07:37.326Z,96.67
2018-10-07T02:08:11.353Z,94.67
2018-10-07T02:08:45.296Z,94.90
2018-10-07T02:09:19.319Z,94.90
2018-10-07T02:09:53.250Z,94.37
2018-10-07T02:10:27.367Z,99.10
2018-10-07T02:11:01.506Z,95.07
2018-10-07T02:11:35.620Z,89.93
2018-10-07T02:12:11.318Z,98.63
2018-10-07T02:12:45.341Z,95.83
2018-10-07T02:13:19.320Z,94.40
2018-10-07T02:13:53.236Z,96.00
2018-10-07T02:14:27.282Z,99.17
2018-10-07T02:15:01.109Z,98.67
2018-10-07T02:16:15.982Z,93.50
2018-10-07T02:16:50.016Z,101.80
2018-10-07T02:17:23.760Z,104.70
2018-10-07T02:17:57.640Z,101.60
2018-10-07T02:18:31.756Z,104.30
2018-10-07T02:19:05.701Z,95.37
2018-10-07T02:19:39.676Z,96.93
2018-10-07T02:20:14.028Z,100.57
2018-10-07T02:20:48.281Z,101.87
2018-10-07T02:21:21.992Z,105.47
2018-10-07T02:21:55.806Z,110.57
2018-10-07T02:22:29.701Z,99.83
2018-10-07T02:23:03.881Z,97.00
2018-10-07T02:23:37.797Z,102.87
2018-10-07T02:24:12.224Z,107.50
2018-10-07T02:24:46.163Z,101.83
2018-10-07T02:25:20.131Z,91.23
2018-10-07T02:25:54.197Z,99.07
2018-10-07T02:26:28.113Z,98.80
2018-10-07T02:27:02.188Z,104.33
2018-10-07T02:27:36.515Z,97.60
2018-10-07T02:28:10.615Z,96.13
2018-10-07T02:28:44.603Z,98.93
2018-10-07T02:29:18.807Z,100.07
2018-10-07T02:29:52.583Z,98.27
2018-10-07T02:30:26.725Z,94.60
2018-10-07T02:31:00.827Z,94.00
2018-10-07T02:31:34.669Z,103.80
2018-10-07T02:32:08.518Z,105.77
2018-10-07T02:32:42.808Z,102.80
2018-10-07T02:33:16.804Z,102.50
2018-10-07T02:33:50.873Z,93.17
2018-10-07T02:34:24.745Z,97.47
2018-10-07T02:34:58.657Z,106.77
2018-10-07T02:35:32.396Z,99.13
2018-10-07T02:36:06.430Z,97.87
2018-10-07T02:36:40.440Z,98.07
2018-10-07T02:37:14.276Z,96.37
2018-10-07T02:37:48.544Z,103.70
2018-10-07T02:38:22.359Z,96.87
2018-10-07T02:38:56.484Z,100.20
2018-10-07T02:39:30.265Z,92.80
2018-10-07T02:40:04.324Z,98.47
2018-10-07T02:40:40.585Z,92.40
2018-10-07T02:41:14.828Z,102.40
2018-10-07T02:41:48.681Z,99.73
2018-10-07T02:42:22.857Z,104.40
2018-10-07T02:42:56.621Z,95.53
2018-10-07T02:43:30.436Z,101.10
2018-10-07T02:44:04.181Z,101.77
2018-10-07T02:44:38.119Z,101.63
2018-10-07T02:45:12.137Z,90.50
2018-10-07T02:45:46.064Z,99.13
2018-10-07T02:46:20.170Z,93.67
2018-10-07T02:46:54.036Z,97.03
2018-10-07T02:47:28.108Z,96.83
2018-10-07T02:48:02.099Z,94.73
2018-10-07T02:48:35.985Z,93.87
2018-10-07T02:49:09.748Z,94.50
2018-10-07T02:49:43.707Z,95.27
2018-10-07T02:50:21.247Z,92.87
2018-10-07T02:50:55.142Z,96.07
2018-10-07T02:51:29.380Z,97.10
2018-10-07T02:52:03.216Z,95.00
2018-10-07T02:52:43.038Z,92.93
2018-10-07T02:53:17.101Z,92.47
2018-10-07T02:53:50.960Z,94.50
2018-10-07T02:54:25.291Z,92.83
2018-10-07T02:54:59.630Z,90.27
2018-10-07T02:55:33.436Z,97.53
2018-10-07T02:56:07.541Z,99.83
2018-10-07T02:56:41.467Z,98.03
2018-10-07T02:57:15.651Z,89.53
2018-10-07T02:57:51.714Z,97.13
2018-10-07T02:58:26.384Z,93.53
2018-10-07T02:59:00.516Z,100.27
2018-10-07T02:59:34.413Z,96.97
2018-10-07T03:00:08.249Z,100.20
2018-10-07T03:00:42.080Z,93.80
2018-10-07T03:01:16.140Z,94.47
2018-10-07T03:01:50.503Z,97.83
2018-10-07T03:02:24.479Z,98.13
2018-10-07T03:02:58.587Z,100.07
2018-10-07T03:03:32.346Z,94.23
2018-10-07T03:04:06.214Z,94.77
2018-10-07T03:04:40.653Z,97.20
2018-10-07T03:05:15.269Z,94.80
2018-10-07T03:05:49.465Z,98.57
2018-10-07T03:06:23.973Z,91.03
2018-10-07T03:06:57.724Z,92.27
2018-10-07T03:07:31.606Z,89.23
2018-10-07T03:08:05.605Z,90.77
2018-10-07T03:08:39.470Z,94.40
2018-10-07T03:09:15.076Z,89.07
2018-10-07T03:09:49.533Z,98.73
2018-10-07T03:10:23.470Z,100.70
2018-10-07T03:10:57.392Z,98.07
2018-10-07T03:11:31.283Z,98.17
2018-10-07T03:12:05.264Z,100.00
2018-10-07T03:12:39.122Z,102.47
2018-10-07T03:13:13.088Z,93.27
2018-10-07T03:13:46.995Z,95.63
2018-10-07T03:14:20.838Z,96.90
2018-10-07T03:14:54.813Z,96.73
2018-10-07T03:15:28.629Z,97.03
2018-10-07T03:16:02.422Z,90.13
2018-10-07T03:16:36.454Z,88.13
2018-10-07T03:17:10.448Z,89.90
2018-10-07T03:17:44.371Z,90.47
2018-10-07T03:18:18.327Z,90.10
2018-10-07T03:18:52.560Z,84.57
2018-10-07T03:19:26.341Z,91.33
2018-10-07T03:20:00.506Z,88.20
2018-10-07T03:20:34.196Z,83.00
2018-10-07T03:21:08.279Z,81.00
2018-10-07T03:21:42.027Z,83.50
2018-10-07T03:22:16.060Z,89.87
2018-10-07T03:22:50.609Z,83.73
2018-10-07T03:23:24.804Z,88.63
2018-10-07T03:23:58.782Z,85.67
2018-10-07T03:24:33.003Z,87.90
2018-10-07T03:25:07.047Z,85.93
2018-10-07T03:25:41.203Z,81.70
2018-10-07T03:26:14.886Z,84.63
2018-10-07T03:26:48.625Z,81.87
2018-10-07T03:27:23.194Z,78.27
2018-10-07T03:27:57.107Z,82.37
2018-10-07T03:28:31.238Z,82.47
2018-10-07T03:29:05.082Z,77.10
2018-10-07T03:29:39.092Z,76.87
2018-10-07T03:30:12.922Z,77.43
2018-10-07T03:30:46.878Z,74.77
2018-10-07T03:31:21.402Z,75.43
2018-10-07T03:31:55.723Z,80.33
2018-10-07T03:32:29.559Z,74.27
2018-10-07T03:33:03.738Z,72.70
2018-10-07T03:33:37.571Z,76.37
2018-10-07T03:34:11.581Z,72.27
2018-10-07T03:34:45.725Z,70.93
2018-10-07T03:35:19.559Z,68.90
2018-10-07T03:35:53.559Z,72.53
2018-10-07T03:36:27.423Z,68.37
2018-10-07T03:37:01.786Z,64.80
2018-10-07T03:37:35.620Z,64.57
2018-10-07T03:38:09.617Z,60.77
2018-10-07T03:38:43.517Z,65.80
2018-10-07T03:39:17.564Z,60.60
2018-10-07T03:39:51.631Z,64.73
2018-10-07T03:40:25.593Z,62.43
2018-10-07T03:41:00.093Z,61.20
2018-10-07T03:41:33.876Z,54.40
2018-10-07T03:42:07.704Z,52.50
2018-10-07T03:42:41.772Z,50.83
2018-10-07T03:43:15.615Z,49.70
2018-10-07T03:43:49.486Z,52.20
2018-10-07T03:44:23.523Z,46.90
2018-10-07T03:44:57.424Z,44.17
2018-10-07T03:45:31.263Z,47.67
2018-10-07T03:46:05.141Z,50.20
2018-10-07T03:46:39.059Z,49.37
2018-10-07T03:47:13.003Z,40.40
2018-10-07T03:47:47.110Z,38.07
2018-10-07T03:48:21.044Z,37.90
2018-10-07T03:48:54.991Z,34.00
2018-10-07T03:49:29.421Z,35.17
2018-10-07T03:50:03.401Z,33.53
2018-10-07T03:50:37.238Z,34.87
2018-10-07T03:51:11.214Z,32.97
2018-10-07T03:51:45.188Z,31.87
2018-10-07T03:52:18.962Z,32.23
2018-10-07T03:52:53.187Z,33.27
2018-10-07T03:53:27.319Z,32.77
2018-10-07T03:54:01.265Z,31.30
2018-10-07T03:54:35.561Z,27.33
2018-10-07T03:55:09.305Z,27.93
2018-10-07T03:55:43.179Z,26.20
2018-10-07T03:56:17.014Z,24.00
2018-10-07T03:56:50.795Z,25.90
2018-10-07T03:57:24.808Z,22.60
2018-10-07T03:57:59.011Z,25.73
2018-10-07T03:58:32.979Z,21.73
2018-10-07T03:59:06.799Z,23.67
2018-10-07T03:59:40.780Z,22.27
2018-10-07T04:00:14.597Z,21.23
2018-10-07T04:00:48.743Z,18.30
2018-10-07T04:01:22.664Z,19.43
2018-10-07T04:01:57.509Z,19.67
2018-10-07T04:02:31.440Z,18.20
2018-10-07T04:03:05.772Z,20.60
2018-10-07T04:03:39.516Z,22.20
2018-10-07T04:04:13.609Z,23.03
2018-10-07T04:04:47.746Z,19.77
2018-10-07T04:05:21.691Z,20.30
2018-10-07T04:05:55.570Z,21.63
2018-10-07T04:06:29.678Z,19.07
2018-10-07T04:07:03.773Z,24.20
2018-10-07T04:07:37.646Z,23.70
2018-10-07T04:08:11.804Z,21.17
2018-10-07T04:08:45.723Z,19.53
2018-10-07T04:09:19.855Z,20.97
2018-10-07T04:09:53.588Z,21.13
2018-10-07T04:10:27.837Z,22.30
2018-10-07T04:11:03.045Z,21.73
2018-10-07T04:11:37.243Z,22.70
2018-10-07T04:12:11.344Z,20.80
2018-10-07T04:12:45.168Z,18.37
2018-10-07T04:13:18.927Z,22.43
2018-10-07T04:13:52.969Z,20.83
2018-10-07T04:14:26.937Z,20.90
2018-10-07T04:15:01.669Z,20.90
2018-10-07T04:15:35.591Z,20.97
2018-10-07T04:16:09.404Z,20.87
2018-10-07T04:16:43.303Z,21.07
2018-10-07T04:17:17.147Z,21.73
2018-10-07T04:17:51.038Z,21.33
2018-10-07T04:18:25.039Z,25.43
2018-10-07T04:18:59.709Z,21.83
2018-10-07T04:19:33.915Z,20.27
2018-10-07T04:20:07.752Z,21.57
2018-10-07T04:20:41.742Z,24.90
2018-10-07T04:21:15.525Z,22.00
2018-10-07T04:21:53.579Z,18.63
2018-10-07T04:22:27.451Z,20.37
2018-10-07T04:23:01.885Z,23.37
2018-10-07T04:23:36.197Z,22.33
2018-10-07T04:24:10.449Z,21.00
2018-10-07T04:24:44.284Z,20.50
2018-10-07T04:25:18.090Z,22.47
2018-10-07T04:25:51.937Z,19.80
2018-10-07T04:26:25.658Z,22.77
2018-10-07T04:26:59.649Z,19.73
2018-10-07T04:27:33.710Z,20.73
2018-10-07T04:28:07.585Z,20.77
2018-10-07T04:28:41.859Z,20.33
2018-10-07T04:29:15.851Z,24.97
2018-10-07T04:29:49.778Z,19.97
2018-10-07T04:30:23.497Z,24.60
2018-10-07T04:30:57.437Z,26.17
2018-10-07T04:31:31.290Z,19.73
2018-10-07T04:32:05.414Z,19.33
2018-10-07T04:32:39.478Z,22.73
2018-10-07T04:33:13.515Z,19.40
2018-10-07T04:33:47.330Z,20.40
2018-10-07T04:34:21.256Z,23.43
2018-10-07T04:34:55.197Z,20.93
2018-10-07T04:35:29.145Z,20.60
2018-10-07T04:36:03.039Z,23.47
2018-10-07T04:36:37.286Z,20.70
2018-10-07T04:37:11.196Z,19.13
2018-10-07T04:37:45.103Z,21.97
2018-10-07T04:38:18.896Z,24.30
2018-10-07T04:38:52.855Z,22.33
2018-10-07T04:39:26.842Z,21.20
2018-10-07T04:40:00.597Z,26.77
2018-10-07T04:40:34.661Z,23.67
2018-10-07T04:41:09.322Z,24.07
2018-10-07T04:41:43.824Z,21.77
2018-10-07T04:42:17.458Z,18.97
2018-10-07T04:42:51.549Z,23.67
2018-10-07T04:43:25.511Z,21.13
2018-10-07T04:43:59.345Z,21.23
2018-10-07T04:44:33.156Z,22.73
2018-10-07T04:45:07.548Z,23.67
2018-10-07T04:45:41.615Z,26.27
2018-10-07T04:46:15.612Z,18.43
2018-10-07T04:46:49.365Z,22.70
2018-10-07T04:47:23.099Z,23.60
2018-10-07T04:47:56.754Z,22.10
2018-10-07T04:48:30.685Z,23.80
2018-10-07T04:49:05.262Z,22.60
2018-10-07T04:49:39.300Z,21.23
2018-10-07T04:50:13.019Z,23.10
2018-10-07T04:50:46.968Z,21.33
2018-10-07T04:51:20.755Z,20.30
2018-10-07T04:51:54.589Z,21.03
2018-10-07T04:52:28.459Z,22.33
2018-10-07T04:53:02.580Z,19.00
2018-10-07T04:53:36.716Z,22.53
2018-10-07T04:54:10.611Z,21.20
2018-10-07T04:54:44.711Z,21.53
2018-10-07T04:55:18.674Z,21.40
2018-10-07T04:55:52.632Z,20.57
2018-10-07T04:56:26.442Z,25.13
2018-10-07T04:57:00.590Z,23.40
2018-10-07T04:57:34.575Z,23.63
2018-10-07T04:58:08.481Z,25.30
2018-10-07T04:58:42.461Z,26.17
2018-10-07T04:59:16.412Z,23.17
2018-10-07T04:59:50.162Z,23.40
2018-10-07T05:00:24.197Z,25.20
2018-10-07T05:00:57.930Z,24.47
2018-10-07T05:01:31.883Z,21.23
2018-10-07T05:02:05.896Z,23.20
2018-10-07T05:02:39.889Z,25.73
2018-10-07T05:03:13.992Z,25.20
2018-10-07T05:03:48.199Z,25.23
2018-10-07T05:04:22.035Z,25.47
2018-10-07T05:04:56.380Z,23.53
2018-10-07T05:05:30.507Z,26.73
2018-10-07T05:06:04.329Z,29.10
2018-10-07T05:06:38.300Z,27.93
2018-10-07T05:07:14.731Z,26.97
2018-10-07T05:07:49.708Z,23.87
2018-10-07T05:08:24.124Z,25.90
2018-10-07T05:08:58.290Z,26.13
2018-10-07T05:09:32.269Z,22.20
2018-10-07T05:10:17.333Z,27.03
2018-10-07T05:10:53.890Z,27.33
2018-10-07T05:11:29.024Z,27.50
2018-10-07T05:12:04.227Z,23.73
2018-10-07T05:12:38.289Z,24.30
2018-10-07T05:13:13.616Z,29.47
2018-10-07T05:13:52.238Z,28.83
2018-10-07T05:14:26.323Z,26.20
2018-10-07T05:15:00.175Z,26.77
2018-10-07T05:15:34.148Z,27.27
2018-10-07T05:16:08.239Z,27.37
2018-10-07T05:16:47.246Z,25.70
2018-10-07T05:17:21.126Z,27.10
2018-10-07T05:17:55.231Z,25.23
2018-10-07T05:18:29.660Z,27.13
2018-10-07T05:19:04.059Z,28.73
2018-10-07T05:19:38.152Z,27.23
2018-10-07T05:20:12.208Z,26.87
2018-10-07T05:20:46.136Z,26.97
2018-10-07T05:21:20.116Z,27.47
2018-10-07T05:21:54.165Z,25.37
2018-10-07T05:22:28.205Z,26.50
2018-10-07T05:23:02.405Z,28.70
2018-10-07T05:23:36.257Z,26.73
2018-10-07T05:24:10.248Z,29.87
2018-10-07T05:24:44.157Z,25.57
2018-10-07T05:25:18.109Z,28.63
2018-10-07T05:25:52.227Z,27.70
2018-10-07T05:26:26.409Z,30.43
2018-10-07T05:27:00.190Z,29.40
2018-10-07T05:27:34.072Z,25.77
2018-10-07T05:28:07.979Z,28.03
2018-10-07T05:28:42.283Z,25.80
2018-10-07T05:29:16.359Z,28.37
2018-10-07T05:29:50.602Z,27.60
2018-10-07T05:30:24.577Z,27.40
2018-10-07T05:30:58.435Z,25.77
2018-10-07T05:31:32.200Z,27.23
2018-10-07T05:32:06.154Z,28.13
2018-10-07T05:32:40.312Z,28.37
2018-10-07T05:33:14.589Z,25.33
2018-10-07T05:33:48.675Z,24.77
2018-10-07T05:34:22.511Z,24.37
2018-10-07T05:34:56.356Z,26.67
2018-10-07T05:35:30.195Z,26.07
2018-10-07T05:36:03.927Z,23.80
2018-10-07T05:36:37.782Z,26.77
2018-10-07T05:37:11.664Z,22.47
2018-10-07T05:37:45.658Z,25.13
2018-10-07T05:38:19.604Z,22.93
2018-10-07T05:38:53.536Z,22.93
2018-10-07T05:39:27.563Z,23.50
2018-10-07T05:40:01.342Z,21.27
2018-10-07T05:40:35.286Z,21.93
2018-10-07T05:41:09.301Z,23.73
2018-10-07T05:41:43.207Z,21.43
2018-10-07T05:42:17.463Z,20.47
2018-10-07T05:42:51.206Z,19.50
2018-10-07T05:43:25.020Z,18.20
2018-10-07T05:43:58.975Z,21.47
2018-10-07T05:44:33.064Z,19.17
2018-10-07T05:45:07.400Z,20.27
2018-10-07T05:45:41.221Z,19.20
2018-10-07T05:46:15.612Z,18.13
2018-10-07T05:46:49.821Z,16.37
2018-10-07T05:47:23.711Z,17.30
2018-10-07T05:47:57.553Z,18.47
2018-10-07T05:48:31.485Z,18.40
2018-10-07T05:49:05.727Z,16.23
2018-10-07T05:49:39.661Z,15.77
2018-10-07T05:50:13.890Z,15.17
2018-10-07T05:50:48.102Z,16.80
2018-10-07T05:51:22.271Z,15.07
2018-10-07T05:51:56.532Z,16.73
2018-10-07T05:52:30.248Z,14.80
2018-10-07T05:53:04.611Z,15.73
2018-10-07T05:53:38.279Z,16.07
2018-10-07T05:54:12.198Z,13.87
2018-10-07T05:54:46.389Z,16.63
2018-10-07T05:55:21.014Z,16.13
2018-10-07T05:55:54.808Z,15.37
2018-10-07T05:56:43.554Z,13.40
2018-10-07T05:57:17.802Z,13.40
2018-10-07T05:57:54.150Z,12.40
2018-10-07T05:58:28.204Z,14.83
2018-10-07T05:59:02.143Z,13.13
2018-10-07T05:59:36.028Z,12.17
2018-10-07T06:00:11.709Z,15.53
2018-10-07T06:00:45.628Z,10.63
2018-10-07T06:01:26.178Z,15.47
2018-10-07T06:02:03.623Z,14.23
2018-10-07T06:02:38.243Z,10.67
2018-10-07T06:03:21.849Z,11.57
2018-10-07T06:04:01.700Z,9.00
2018-10-07T06:04:41.023Z,11.40
2018-10-07T06:05:15.514Z,10.30
2018-10-07T06:05:51.054Z,11.23
2018-10-07T06:06:25.540Z,12.27
2018-10-07T06:07:01.555Z,10.77
2018-10-07T06:07:35.655Z,9.20
2018-10-07T06:08:10.346Z,9.10
2018-10-07T06:08:44.281Z,8.73
2018-10-07T06:09:24.743Z,12.53
2018-10-07T06:09:58.788Z,9.30
2018-10-07T06:10:32.792Z,10.03
2018-10-07T06:11:07.227Z,10.47
2018-10-07T06:11:41.456Z,10.30
2018-10-07T06:12:15.636Z,9.43
2018-10-07T06:12:49.923Z,8.57
2018-10-07T06:13:24.309Z,9.33
2018-10-07T06:13:58.523Z,9.53
2018-10-07T06:14:43.965Z,8.53
2018-10-07T06:15:29.793Z,7.93
2018-10-07T06:16:03.722Z,7.50
2018-10-07T06:16:38.008Z,7.87
2018-10-07T06:17:11.999Z,8.70
2018-10-07T06:17:45.868Z,7.43
2018-10-07T06:18:20.744Z,6.30
2018-10-07T06:18:54.831Z,7.70
2018-10-07T06:19:29.190Z,6.80
2018-10-07T06:20:03.313Z,8.43
2018-10-07T06:20:37.376Z,7.93
2018-10-07T06:21:11.640Z,6.77
2018-10-07T06:21:45.776Z,6.00
2018-10-07T06:22:21.008Z,5.90
2018-10-07T06:22:55.342Z,7.20
2018-10-07T06:23:29.795Z,8.27
2018-10-07T06:24:03.956Z,6.30
2018-10-07T06:24:38.042Z,6.60
2018-10-07T06:25:12.804Z,6.63
2018-10-07T06:25:46.609Z,5.47
2018-10-07T06:26:20.630Z,6.37
2018-10-07T06:26:55.164Z,4.83
2018-10-07T06:27:28.980Z,7.73
2018-10-07T06:28:02.852Z,5.47
2018-10-07T06:28:36.990Z,4.07
2018-10-07T06:29:10.836Z,4.27
2018-10-07T06:29:44.918Z,3.87
2018-10-07T06:30:19.334Z,4.67
2018-10-07T06:30:53.415Z,3.90
2018-10-07T06:31:27.446Z,3.23
2018-10-07T06:32:01.796Z,4.27
2018-10-07T06:32:36.827Z,4.77
2018-10-07T06:33:10.798Z,3.70
2018-10-07T06:33:44.797Z,3.93
2018-10-07T06:34:19.516Z,5.30
2018-10-07T06:34:53.634Z,3.67
2018-10-07T06:35:27.637Z,1.80
2018-10-07T06:36:02.017Z,3.00
2018-10-07T06:36:36.229Z,3.37
2018-10-07T06:37:10.136Z,2.90
2018-10-07T06:37:44.236Z,3.83
2018-10-07T06:38:18.337Z,3.37
2018-10-07T06:38:52.380Z,5.33
2018-10-07T06:39:26.367Z,2.30
2018-10-07T06:40:00.724Z,4.37
2018-10-07T06:40:34.832Z,4.43
2018-10-07T06:41:08.986Z,4.63
2018-10-07T06:41:43.215Z,4.30
2018-10-07T06:42:17.622Z,5.17
2018-10-07T06:42:51.771Z,3.80
2018-10-07T06:43:26.678Z,3.37
2018-10-07T06:44:01.072Z,3.87
2018-10-07T06:44:35.058Z,4.57
2018-10-07T06:45:09.260Z,3.27
2018-10-07T06:45:43.647Z,1.80
2018-10-07T06:46:17.547Z,2.77
2018-10-07T06:46:51.565Z,3.63
2018-10-07T06:47:26.027Z,3.07
2018-10-07T06:48:00.819Z,3.53
2018-10-07T06:48:34.968Z,4.87
2018-10-07T06:49:08.936Z,3.00
2018-10-07T06:49:42.920Z,3.77
2018-10-07T06:50:16.946Z,4.90
2018-10-07T06:50:50.857Z,4.10
2018-10-07T06:51:25.181Z,3.10
2018-10-07T06:51:59.269Z,7.67
2018-10-07T06:52:33.178Z,4.37
2018-10-07T06:53:07.878Z,2.90
2018-10-07T06:53:41.729Z,3.40
2018-10-07T06:54:15.635Z,2.67
2018-10-07T06:54:49.524Z,4.03
2018-10-07T06:55:23.691Z,2.90
2018-10-07T06:55:58.110Z,4.00
2018-10-07T06:56:32.545Z,1.90
2018-10-07T06:57:06.628Z,4.23
2018-10-07T06:57:40.844Z,3.77
2018-10-07T06:58:14.662Z,3.20
2018-10-07T06:58:48.528Z,5.17
2018-10-07T06:59:22.618Z,3.57
2018-10-07T06:59:56.858Z,2.83
2018-10-07T07:00:31.345Z,5.73
2018-10-07T07:01:05.362Z,3.83
2018-10-07T07:01:40.040Z,6.60
2018-10-07T07:02:14.202Z,4.70
2018-10-07T07:02:48.248Z,3.57
2018-10-07T07:03:22.437Z,4.30
2018-10-07T07:03:56.660Z,3.70
2018-10-07T07:04:30.810Z,4.00
2018-10-07T07:05:05.050Z,5.47
2018-10-07T07:05:38.724Z,4.23
2018-10-07T07:06:12.939Z,4.07
2018-10-07T07:06:46.837Z,5.87
2018-10-07T07:07:21.047Z,3.57
2018-10-07T07:07:55.098Z,3.17
2018-10-07T07:08:29.375Z,4.50
2018-10-07T07:09:05.624Z,3.70
2018-10-07T07:09:39.651Z,3.17
2018-10-07T07:10:13.593Z,3.47
2018-10-07T07:10:47.491Z,4.17
2018-10-07T07:11:21.263Z,4.20
2018-10-07T07:11:55.184Z,4.03
2018-10-07T07:12:29.614Z,3.23
2018-10-07T07:13:04.175Z,4.07
2018-10-07T07:13:37.981Z,3.80
2018-10-07T07:14:11.804Z,3.83
2018-10-07T07:14:45.706Z,4.03
2018-10-07T07:15:19.804Z,3.80
2018-10-07T07:15:53.676Z,5.73
2018-10-07T07:16:27.801Z,5.77
2018-10-07T07:17:02.007Z,3.53
2018-10-07T07:17:36.272Z,5.53
2018-10-07T07:18:10.302Z,4.53
2018-10-07T07:18:44.194Z,3.20
2018-10-07T07:19:18.101Z,4.43
2018-10-07T07:19:52.090Z,3.17
2018-10-07T07:20:26.147Z,3.60
2018-10-07T07:21:00.595Z,2.77
2018-10-07T07:21:34.954Z,3.07
2018-10-07T07:22:08.684Z,3.33
2018-10-07T07:22:42.553Z,4.40
2018-10-07T07:23:16.287Z,3.13